Kingsland, Arkansas
Current Conditions -  °F | °C
As of 3:53 PM on Saturday 25 Oct 2014 (Local Time) from KPBF Reporting Station
Clear Clear  
Wind Chill: 82°   Ceiling: Unl
Heat Index: 83°   Visibility: 10mi
Dew Point: 63°   Wind: 10mph
Humidity: 52%   Direction: 230°SW
Pressure: 30.04"   Gusts: NA
Location:  33.86°N, 92.29°W
Report Text: KPBF 252053Z AUTO 23009KT 10SM CLR 28/17 A3004 RMK AO2 SLP171 T02780172 56017
Loading
Personal Weather Stations






























Interactive Weather Map
Tropical Storm Tracking
New forecast layout! Learn more

10-Day Weather Forecast

Advertisements
Track Severe Weather on mobile